Time;durP1;ratioP1;P1;durP2;ratioP2;P2;SDS_P1;SDS_P2;PMS_P1;PMS_P2;Temp;Humidity;BMP_temperature;BMP_pressure;BME280_temperature;BME280_humidity;BME280_pressure;Samples;Min_cycle;Max_cycle;Signal;HPM_P1;HPM_P2
2021/12/07 00:01:28;;;;;;;1.90;1.80;;;16.90;56.50;;;;;;5050939;28;20268;-61
2021/12/07 00:03:53;;;;;;;2.03;1.70;;;16.90;56.50;;;;;;5050430;28;20264;-60
2021/12/07 00:06:19;;;;;;;1.83;1.73;;;16.90;56.50;;;;;;5050649;28;20301;-59
2021/12/07 00:08:44;;;;;;;2.70;1.65;;;16.80;56.50;;;;;;5050994;28;20180;-60
2021/12/07 00:11:10;;;;;;;2.13;1.50;;;16.80;56.50;;;;;;5050284;28;20761;-60
2021/12/07 00:13:38;;;;;;;1.77;1.67;;;16.80;56.50;;;;;;5050979;28;20171;-60
2021/12/07 00:16:04;;;;;;;1.75;1.65;;;16.80;56.50;;;;;;5050991;28;20179;-60
2021/12/07 00:18:30;;;;;;;1.92;1.83;;;16.80;56.50;;;;;;5050103;28;20183;-60
2021/12/07 00:20:55;;;;;;;1.80;1.70;;;16.80;56.50;;;;;;5052834;28;20539;-60
2021/12/07 00:23:21;;;;;;;1.80;1.70;;;16.80;56.40;;;;;;5054503;28;20237;-60
2021/12/07 00:25:47;;;;;;;1.83;1.73;;;16.80;56.40;;;;;;5054017;28;20673;-60
2021/12/07 00:28:12;;;;;;;1.63;1.52;;;16.70;56.30;;;;;;5054707;28;20186;-60
2021/12/07 00:30:38;;;;;;;1.63;1.52;;;16.70;56.40;;;;;;5053747;28;21019;-60
2021/12/07 00:33:13;;;;;;;1.50;1.40;;;16.70;56.40;;;;;;5054692;28;20175;-60
2021/12/07 00:35:38;;;;;;;1.48;1.38;;;16.70;56.30;;;;;;5054199;28;20178;-59
2021/12/07 00:38:10;;;;;;;1.55;1.45;;;16.70;56.30;;;;;;5053939;28;20181;-60
2021/12/07 00:40:35;;;;;;;1.60;1.50;;;16.70;56.30;;;;;;5053974;28;20250;-59
2021/12/07 00:43:01;;;;;;;1.67;1.58;;;16.60;56.20;;;;;;5054279;28;20345;-59
2021/12/07 00:45:28;;;;;;;1.80;1.70;;;16.60;56.20;;;;;;5053367;28;20210;-59
2021/12/07 00:47:54;;;;;;;1.90;1.80;;;16.60;56.30;;;;;;5054796;28;20504;-59
2021/12/07 00:50:21;;;;;;;2.08;1.77;;;16.60;56.30;;;;;;5053947;28;20182;-60
2021/12/07 00:52:46;;;;;;;1.65;1.50;;;16.60;56.20;;;;;;5053700;28;20548;-60
2021/12/07 00:55:14;;;;;;;1.70;1.60;;;16.50;56.20;;;;;;5054301;28;20566;-59
2021/12/07 00:57:39;;;;;;;1.63;1.52;;;16.60;56.30;;;;;;5054242;28;20187;-59
2021/12/07 01:00:08;;;;;;;1.70;1.60;;;16.60;56.30;;;;;;5053605;28;20179;-60
2021/12/07 01:02:33;;;;;;;1.55;1.45;;;16.50;56.20;;;;;;5053677;28;20175;-60
2021/12/07 01:05:08;;;;;;;1.50;1.40;;;16.50;56.10;;;;;;5054052;28;20538;-59
2021/12/07 01:26:14;;;;;;;1.42;1.33;;;16.40;56.20;;;;;;5053942;28;20233;-59
2021/12/07 01:28:44;;;;;;;1.73;1.63;;;16.40;56.20;;;;;;5051070;28;20634;-60
2021/12/07 01:31:22;;;;;;;1.33;1.23;;;16.40;56.10;;;;;;5053963;28;20205;-60
2021/12/07 01:34:11;;;;;;;1.50;1.40;;;16.40;56.20;;;;;;5053234;28;20178;-60
2021/12/07 01:36:48;;;;;;;1.63;1.52;;;16.40;56.20;;;;;;5053600;28;20262;-60
2021/12/07 01:42:47;;;;;;;1.73;1.60;;;16.30;56.20;;;;;;5052829;28;20175;-60
2021/12/07 01:44:59;;;;;;;1.63;1.52;;;16.30;56.10;;;;;;5053250;28;20190;-60
2021/12/07 01:50:15;;;;;;;1.60;1.50;;;16.30;56.10;;;;;;5053013;28;20176;-60
2021/12/07 02:00:43;;;;;;;1.55;1.45;;;16.30;56.10;;;;;;5052637;28;20301;-60
2021/12/07 02:03:08;;;;;;;1.27;1.20;;;16.30;56.20;;;;;;5052444;28;20254;-60
2021/12/07 02:05:34;;;;;;;1.65;1.55;;;16.30;56.10;;;;;;5052777;28;20780;-59
2021/12/07 02:08:00;;;;;;;1.70;1.60;;;16.20;56.00;;;;;;5052849;28;20258;-59
2021/12/07 02:10:28;;;;;;;1.33;1.33;;;16.30;56.10;;;;;;5052206;28;20175;-59
2021/12/07 02:13:01;;;;;;;1.50;1.40;;;16.20;56.00;;;;;;5052938;28;20175;-60
2021/12/07 02:15:28;;;;;;;1.20;1.20;;;16.20;56.00;;;;;;5052486;28;20544;-60
2021/12/07 02:17:54;;;;;;;1.73;1.63;;;16.20;56.10;;;;;;5052113;28;20179;-60
2021/12/07 02:20:20;;;;;;;1.27;1.23;;;16.20;56.10;;;;;;5052301;28;20259;-59
2021/12/07 02:22:46;;;;;;;1.42;1.20;;;16.20;56.00;;;;;;5052492;28;20175;-59
2021/12/07 02:25:12;;;;;;;1.20;1.13;;;16.20;56.10;;;;;;5051805;28;20206;-60
2021/12/07 02:27:38;;;;;;;1.45;1.35;;;16.20;56.70;;;;;;5052389;28;20570;-60
2021/12/07 02:30:05;;;;;;;1.40;1.30;;;16.20;56.10;;;;;;5052130;28;20228;-60
2021/12/07 02:32:31;;;;;;;1.27;1.17;;;16.20;56.10;;;;;;5051900;28;20236;-60
2021/12/07 02:35:00;;;;;;;1.40;1.30;;;16.10;56.10;;;;;;5052352;28;20171;-60
2021/12/07 02:37:29;;;;;;;1.10;1.10;;;16.10;56.00;;;;;;5051117;28;20232;-59
2021/12/07 02:39:54;;;;;;;1.40;1.30;;;16.10;56.10;;;;;;5052163;28;20547;-59
2021/12/07 02:42:20;;;;;;;1.50;1.40;;;16.10;56.10;;;;;;5051884;28;20179;-61
2021/12/07 02:44:45;;;;;;;1.88;1.30;;;16.10;56.00;;;;;;5051144;28;20262;-60
2021/12/07 02:47:11;;;;;;;1.80;1.60;;;16.10;56.10;;;;;;5052179;28;20186;-60
2021/12/07 02:49:36;;;;;;;1.30;1.20;;;16.10;56.00;;;;;;5051815;28;20174;-60
2021/12/07 02:52:03;;;;;;;1.50;1.40;;;16.10;56.00;;;;;;5051208;28;20226;-60
2021/12/07 02:54:29;;;;;;;1.23;1.13;;;16.00;56.00;;;;;;5051874;28;20175;-60
2021/12/07 02:56:54;;;;;;;1.20;1.10;;;16.00;56.00;;;;;;5052003;28;20521;-60
2021/12/07 02:59:21;;;;;;;1.55;1.45;;;16.10;56.10;;;;;;5050992;28;20196;-63
2021/12/07 03:01:55;;;;;;;1.35;1.25;;;16.00;56.00;;;;;;5051942;28;20175;-59
2021/12/07 03:04:30;;;;;;;1.50;1.40;;;16.10;56.20;;;;;;5051387;28;20186;-60
2021/12/07 03:28:17;;;;;;;1.90;1.80;;;15.90;56.00;;;;;;5035490;28;20301;-59
2021/12/07 03:30:43;;;;;;;1.67;1.58;;;15.90;56.00;;;;;;5051276;28;20186;-60
2021/12/07 03:33:08;;;;;;;1.40;1.30;;;15.90;56.10;;;;;;5051459;28;20380;-60
2021/12/07 03:35:34;;;;;;;1.30;1.20;;;15.90;56.00;;;;;;5050509;28;20222;-60
2021/12/07 03:38:00;;;;;;;1.50;1.40;;;15.90;56.00;;;;;;5051574;28;20194;-60
2021/12/07 03:40:25;;;;;;;1.58;1.48;;;15.90;56.00;;;;;;5050693;28;20218;-59
2021/12/07 03:42:51;;;;;;;1.52;1.42;;;15.90;56.00;;;;;;5051490;28;20259;-60
2021/12/07 03:45:16;;;;;;;1.40;1.30;;;15.90;56.00;;;;;;5051388;28;20202;-60
2021/12/07 03:47:42;;;;;;;1.40;1.40;;;15.90;56.00;;;;;;5050470;28;20186;-60
2021/12/07 03:50:08;;;;;;;1.58;1.48;;;15.80;56.00;;;;;;5051326;28;20179;-59
2021/12/07 03:52:34;;;;;;;1.45;1.30;;;15.80;56.00;;;;;;5050898;28;20223;-59
2021/12/07 03:54:59;;;;;;;1.50;1.40;;;15.80;56.00;;;;;;5051256;28;20171;-60
2021/12/07 03:57:25;;;;;;;1.50;1.40;;;15.80;56.00;;;;;;5055251;28;20267;-60
2021/12/07 03:59:50;;;;;;;1.70;1.60;;;15.80;56.00;;;;;;5055385;28;20178;-60
2021/12/07 04:02:16;;;;;;;1.60;1.50;;;15.80;55.90;;;;;;5054646;28;20178;-61
2021/12/07 04:04:41;;;;;;;1.50;1.40;;;15.80;55.90;;;;;;5054723;28;20205;-59
2021/12/07 04:07:07;;;;;;;1.58;1.48;;;15.80;55.90;;;;;;5055392;28;20627;-59
2021/12/07 04:09:32;;;;;;;1.40;1.30;;;15.80;56.00;;;;;;5054420;28;20179;-59
2021/12/07 04:11:59;;;;;;;2.50;1.40;;;15.70;56.00;;;;;;5055256;28;20171;-59
2021/12/07 04:14:24;;;;;;;1.40;1.30;;;15.70;56.60;;;;;;5055088;28;20216;-59
2021/12/07 04:16:50;;;;;;;1.60;1.50;;;15.70;55.90;;;;;;5054392;28;20175;-59
2021/12/07 04:19:15;;;;;;;1.30;1.20;;;15.70;56.50;;;;;;5055128;28;20213;-60
2021/12/07 04:21:41;;;;;;;1.52;1.42;;;15.70;55.90;;;;;;5054783;28;20649;-58
2021/12/07 04:24:06;;;;;;;1.30;1.20;;;15.70;56.00;;;;;;5054543;28;20179;-60
2021/12/07 04:26:32;;;;;;;1.70;1.60;;;15.70;55.90;;;;;;5054854;28;20226;-60
2021/12/07 04:28:58;;;;;;;1.55;1.45;;;15.70;55.90;;;;;;5055056;28;20179;-60
2021/12/07 04:31:23;;;;;;;1.42;1.33;;;15.70;55.90;;;;;;5053696;28;20668;-60
2021/12/07 04:33:49;;;;;;;1.42;1.33;;;15.60;55.90;;;;;;5054869;28;20168;-59
2021/12/07 04:36:14;;;;;;;1.55;1.45;;;15.70;55.90;;;;;;5054656;28;20546;-60
2021/12/07 04:38:40;;;;;;;1.30;1.20;;;15.60;55.90;;;;;;5053923;28;20171;-60
2021/12/07 04:41:06;;;;;;;1.45;1.35;;;15.70;55.90;;;;;;5055079;28;20183;-60
2021/12/07 04:43:32;;;;;;;1.23;1.23;;;15.60;55.90;;;;;;5054572;28;20642;-60
2021/12/07 04:46:11;;;;;;;1.48;1.38;;;15.60;55.90;;;;;;5053870;28;20747;-59
2021/12/07 04:49:08;;;;;;;1.42;1.35;;;15.60;55.90;;;;;;5054651;28;20164;-59
2021/12/07 04:59:34;;;;;;;1.33;1.23;;;15.60;55.90;;;;;;5053351;28;20206;-60
2021/12/07 05:01:59;;;;;;;1.48;1.30;;;15.60;56.00;;;;;;5054280;28;20630;-60
2021/12/07 05:04:29;;;;;;;1.60;1.50;;;15.60;56.00;;;;;;5053795;28;20664;-59
2021/12/07 05:07:03;;;;;;;1.33;1.30;;;15.60;55.90;;;;;;5053038;28;20215;-60
2021/12/07 05:09:40;;;;;;;1.42;1.40;;;15.60;56.00;;;;;;5053799;28;20167;-60
2021/12/07 05:14:39;;;;;;;1.17;1.15;;;15.50;55.90;;;;;;5053877;28;20262;-60
2021/12/07 05:17:39;;;;;;;1.33;1.23;;;15.50;56.00;;;;;;5053935;28;20277;-59
2021/12/07 05:39:16;;;;;;;1.45;1.33;;;15.40;56.00;;;;;;5053464;28;20174;-61
2021/12/07 05:41:41;;;;;;;1.17;1.17;;;15.40;55.90;;;;;;5052466;28;20171;-60
2021/12/07 05:44:07;;;;;;;1.17;1.15;;;15.40;56.00;;;;;;5053492;28;20545;-61
2021/12/07 05:46:32;;;;;;;2.15;1.30;;;15.40;56.00;;;;;;5052875;28;20211;-60
2021/12/07 05:48:58;;;;;;;1.88;1.77;;;15.40;56.00;;;;;;5052525;28;20172;-60
2021/12/07 05:51:23;;;;;;;1.45;1.35;;;15.40;56.00;;;;;;5052747;28;20678;-60
2021/12/07 05:53:49;;;;;;;1.00;1.00;;;15.40;56.00;;;;;;5053607;28;20190;-59
2021/12/07 05:56:14;;;;;;;1.27;1.27;;;15.40;56.10;;;;;;5052477;28;20205;-59
2021/12/07 05:58:40;;;;;;;1.65;1.20;;;15.40;56.00;;;;;;5052919;28;20212;-59
2021/12/07 06:01:05;;;;;;;1.13;1.10;;;15.40;56.10;;;;;;5052413;28;20265;-60
2021/12/07 06:03:32;;;;;;;1.98;1.40;;;15.40;56.00;;;;;;5052579;28;20691;-60
2021/12/07 06:06:03;;;;;;;1.10;1.10;;;15.40;56.00;;;;;;5053261;28;20219;-59
2021/12/07 06:08:29;;;;;;;1.75;1.42;;;15.40;56.10;;;;;;5052308;28;20182;-59
2021/12/07 06:10:54;;;;;;;1.52;1.20;;;15.50;56.50;;;;;;5052971;28;20178;-60
2021/12/07 06:13:20;;;;;;;1.27;1.17;;;15.50;56.20;;;;;;5052774;28;20202;-59
2021/12/07 06:15:46;;;;;;;1.10;1.00;;;15.60;56.10;;;;;;5052114;28;20167;-61
2021/12/07 06:18:12;;;;;;;1.48;0.90;;;15.70;56.10;;;;;;5052583;28;20186;-60
2021/12/07 06:20:40;;;;;;;1.17;1.08;;;15.80;55.90;;;;;;5052239;28;20638;-60
2021/12/07 06:23:06;;;;;;;1.10;1.00;;;15.90;55.80;;;;;;5051857;28;20727;-60
2021/12/07 06:25:32;;;;;;;1.95;1.40;;;16.10;55.60;;;;;;5052312;28;20218;-60
2021/12/07 06:27:57;;;;;;;1.40;1.00;;;16.20;55.50;;;;;;5052548;28;20605;-60
2021/12/07 06:30:23;;;;;;;0.75;0.75;;;16.30;55.20;;;;;;5051803;28;20175;-60
2021/12/07 06:32:48;;;;;;;0.85;0.85;;;16.50;55.10;;;;;;5052941;28;20174;-61
2021/12/07 06:35:14;;;;;;;1.30;1.20;;;16.50;54.80;;;;;;5052475;28;20248;-60
2021/12/07 06:37:39;;;;;;;0.90;0.90;;;16.60;54.80;;;;;;5051799;28;20565;-61
2021/12/07 06:40:06;;;;;;;1.17;1.08;;;16.70;54.60;;;;;;5052331;28;20171;-60
2021/12/07 06:42:32;;;;;;;1.05;1.00;;;16.80;54.60;;;;;;5052221;28;20183;-60
2021/12/07 06:44:57;;;;;;;1.00;0.95;;;16.80;54.60;;;;;;5051480;28;20171;-60
2021/12/07 06:47:23;;;;;;;2.15;1.35;;;16.80;54.50;;;;;;5052011;28;20629;-60
2021/12/07 06:49:49;;;;;;;0.93;0.93;;;16.90;54.50;;;;;;5052622;28;20174;-60
2021/12/07 06:52:15;;;;;;;0.98;0.93;;;16.80;54.50;;;;;;5051539;28;20223;-60
2021/12/07 06:54:40;;;;;;;1.33;1.05;;;16.80;54.50;;;;;;5052223;28;20194;-60
2021/12/07 06:57:06;;;;;;;1.20;1.10;;;16.80;54.50;;;;;;5052378;28;20186;-60
2021/12/07 06:59:31;;;;;;;1.17;1.08;;;16.80;54.50;;;;;;5051106;28;20181;-60
2021/12/07 07:01:57;;;;;;;1.23;1.00;;;16.70;54.60;;;;;;5051777;28;20320;-60
2021/12/07 07:04:22;;;;;;;1.10;0.98;;;16.70;54.70;;;;;;5051330;28;20220;-60
2021/12/07 07:06:48;;;;;;;1.27;1.17;;;16.70;54.90;;;;;;5051735;28;20215;-60
2021/12/07 07:09:14;;;;;;;1.10;1.10;;;16.70;54.90;;;;;;5051984;28;20171;-60
2021/12/07 07:11:39;;;;;;;1.10;1.00;;;16.80;54.90;;;;;;5050800;28;20323;-61
2021/12/07 07:14:05;;;;;;;1.02;0.95;;;16.80;54.70;;;;;;5051879;28;20179;-60
2021/12/07 07:16:31;;;;;;;1.23;1.05;;;16.90;54.80;;;;;;5051365;28;20664;-60
2021/12/07 07:18:56;;;;;;;1.27;1.10;;;16.90;54.60;;;;;;5051128;28;20171;-60
2021/12/07 07:21:22;;;;;;;0.95;0.93;;;17.00;54.60;;;;;;5051705;28;20290;-60
2021/12/07 07:23:48;;;;;;;1.30;1.20;;;17.10;54.50;;;;;;5051737;28;20179;-61
2021/12/07 07:26:13;;;;;;;0.93;0.90;;;17.20;54.60;;;;;;5051092;28;20657;-61
2021/12/07 07:28:39;;;;;;;1.00;1.00;;;17.20;54.80;;;;;;5051219;28;20179;-60
2021/12/07 07:31:05;;;;;;;0.95;0.93;;;17.40;54.10;;;;;;5051232;28;20175;-61
2021/12/07 07:33:31;;;;;;;1.80;1.20;;;17.60;53.60;;;;;;5050609;28;20673;-60
2021/12/07 07:35:57;;;;;;;1.10;0.90;;;17.80;53.30;;;;;;5051891;28;20225;-60
2021/12/07 07:38:22;;;;;;;0.88;0.85;;;18.00;52.90;;;;;;5051268;28;20179;-60
2021/12/07 07:40:48;;;;;;;1.10;1.00;;;18.20;52.50;;;;;;5050704;28;20175;-60
2021/12/07 07:43:16;;;;;;;0.98;0.95;;;18.30;52.30;;;;;;5051480;28;20179;-60
2021/12/07 07:45:42;;;;;;;1.05;0.95;;;18.40;52.30;;;;;;5050938;28;20222;-59
2021/12/07 07:48:07;;;;;;;1.00;0.90;;;18.40;52.30;;;;;;5051190;28;20254;-59
2021/12/07 07:50:33;;;;;;;0.73;0.73;;;18.40;52.30;;;;;;5051188;28;20240;-58
2021/12/07 07:52:58;;;;;;;1.20;1.00;;;18.50;52.20;;;;;;5051384;28;20557;-60
2021/12/07 07:55:24;;;;;;;0.85;0.80;;;18.70;51.90;;;;;;5050247;28;20167;-60
2021/12/07 07:57:49;;;;;;;1.10;1.00;;;18.80;51.80;;;;;;5051121;28;20175;-61
2021/12/07 08:00:16;;;;;;;0.70;0.70;;;18.90;51.70;;;;;;5051117;28;20638;-62
2021/12/07 08:02:42;;;;;;;1.85;1.10;;;18.90;51.60;;;;;;5050181;28;20240;-63
2021/12/07 08:05:08;;;;;;;5.53;1.48;;;18.90;51.70;;;;;;5051084;28;20218;-71
2021/12/07 08:07:34;;;;;;;2.28;1.35;;;18.90;51.80;;;;;;5050752;28;20175;-64
2021/12/07 08:09:59;;;;;;;2.85;1.30;;;18.80;51.90;;;;;;5050384;28;20214;-64
2021/12/07 08:12:25;;;;;;;1.58;1.00;;;18.80;51.90;;;;;;5050365;28;20274;-63
2021/12/07 08:14:51;;;;;;;1.50;1.17;;;18.80;51.90;;;;;;5050205;28;20577;-63
2021/12/07 08:17:16;;;;;;;1.83;1.30;;;18.80;52.00;;;;;;5050819;28;20163;-64
2021/12/07 08:19:42;;;;;;;2.65;1.23;;;18.70;51.90;;;;;;5050888;28;20187;-64
2021/12/07 08:22:10;;;;;;;3.28;1.45;;;18.70;52.00;;;;;;5050386;28;20171;-63
2021/12/07 08:24:36;;;;;;;3.50;1.13;;;18.70;52.00;;;;;;5050647;28;20221;-64
2021/12/07 08:27:01;;;;;;;3.38;1.25;;;18.70;52.00;;;;;;5050859;28;20623;-64
2021/12/07 08:29:27;;;;;;;1.85;1.38;;;18.60;52.00;;;;;;5049755;28;20511;-64
2021/12/07 08:31:56;;;;;;;2.85;1.15;;;18.70;52.20;;;;;;5051069;28;20183;-65
2021/12/07 08:34:21;;;;;;;3.15;1.30;;;18.70;52.10;;;;;;5050889;28;20183;-65
2021/12/07 08:36:47;;;;;;;1.88;1.35;;;18.70;52.10;;;;;;5050183;28;20163;-66
2021/12/07 08:39:13;;;;;;;4.50;1.30;;;18.60;52.10;;;;;;5050942;28;20210;-64
2021/12/07 08:41:38;;;;;;;2.20;1.42;;;18.60;52.10;;;;;;5051883;28;20179;-64
2021/12/07 08:44:04;;;;;;;2.03;1.30;;;18.60;52.10;;;;;;5053773;28;20240;-65
2021/12/07 08:46:29;;;;;;;5.15;1.63;;;18.60;52.20;;;;;;5053945;28;20577;-63
2021/12/07 08:48:55;;;;;;;1.27;1.02;;;18.60;52.20;;;;;;5054598;28;20182;-64
2021/12/07 08:51:20;;;;;;;2.38;1.30;;;18.60;52.20;;;;;;5053314;28;20238;-65
2021/12/07 08:53:53;;;;;;;1.77;1.15;;;18.60;52.30;;;;;;5054480;28;20171;-64
2021/12/07 09:01:47;;;;;;;1.27;1.17;;;18.70;52.30;;;;;;5054325;28;20177;-65
2021/12/07 09:04:17;;;;;;;2.97;1.08;;;18.70;52.30;;;;;;5053604;28;20179;-65
2021/12/07 09:06:43;;;;;;;1.45;1.17;;;18.70;52.30;;;;;;5053922;28;20287;-64
2021/12/07 09:09:08;;;;;;;2.47;1.52;;;18.70;52.30;;;;;;5054342;28;20193;-64
2021/12/07 09:11:34;;;;;;;2.28;1.00;;;18.70;52.30;;;;;;5053420;28;20685;-63
2021/12/07 09:13:59;;;;;;;2.45;1.30;;;18.70;52.30;;;;;;5053975;28;20680;-62
2021/12/07 09:16:25;;;;;;;1.85;1.35;;;18.80;52.30;;;;;;5053614;28;20661;-63
2021/12/07 09:18:50;;;;;;;2.05;1.38;;;18.80;52.30;;;;;;5053169;28;20630;-63
2021/12/07 09:21:17;;;;;;;2.00;1.20;;;18.80;52.20;;;;;;5053727;28;20171;-63
2021/12/07 09:23:42;;;;;;;1.58;1.35;;;18.80;52.30;;;;;;5053384;28;20534;-64
2021/12/07 09:26:09;;;;;;;1.85;1.38;;;18.70;52.40;;;;;;5053287;28;20221;-63
2021/12/07 09:28:35;;;;;;;6.05;1.67;;;18.60;52.50;;;;;;5053674;28;20269;-64
2021/12/07 09:31:00;;;;;;;2.80;1.20;;;18.50;52.90;;;;;;5053807;28;20729;-65
2021/12/07 09:33:27;;;;;;;2.63;1.35;;;18.40;53.60;;;;;;5052733;28;20222;-66
2021/12/07 09:35:53;;;;;;;3.50;1.45;;;18.30;53.10;;;;;;5053472;28;20187;-66
2021/12/07 09:38:19;;;;;;;3.10;1.27;;;18.30;53.20;;;;;;5053610;28;20181;-65
2021/12/07 09:40:44;;;;;;;2.50;1.40;;;18.20;53.20;;;;;;5052438;28;20279;-72
2021/12/07 09:43:12;;;;;;;3.42;1.25;;;18.20;53.30;;;;;;5053538;28;20195;-63
2021/12/07 09:45:38;;;;;;;3.88;1.50;;;18.10;53.20;;;;;;5053108;28;20218;-63
2021/12/07 09:48:04;;;;;;;3.60;2.00;;;18.10;53.40;;;;;;5052750;28;20229;-65
2021/12/07 09:50:30;;;;;;;5.40;1.52;;;17.90;53.40;;;;;;5052953;28;20179;-64
2021/12/07 09:52:55;;;;;;;4.07;1.58;;;17.90;53.60;;;;;;5052098;28;20284;-64
2021/12/07 09:55:21;;;;;;;4.70;1.70;;;17.90;53.60;;;;;;5052224;28;20634;-64
2021/12/07 09:57:47;;;;;;;5.68;1.80;;;17.80;53.80;;;;;;5053257;28;20261;-63
2021/12/07 10:00:15;;;;;;;4.38;1.65;;;17.80;53.90;;;;;;5051860;28;20222;-62
2021/12/07 10:02:40;;;;;;;4.25;1.75;;;17.80;54.10;;;;;;5052306;28;20179;-64
2021/12/07 10:05:06;;;;;;;6.72;1.80;;;17.90;54.10;;;;;;5052720;28;20521;-63
2021/12/07 10:07:31;;;;;;;4.65;1.73;;;17.90;54.10;;;;;;5051800;28;20656;-65
2021/12/07 10:09:57;;;;;;;3.60;1.92;;;17.90;54.10;;;;;;5052484;28;20656;-64
2021/12/07 10:12:23;;;;;;;2.72;1.30;;;18.00;54.10;;;;;;5052209;28;20583;-64
2021/12/07 10:14:48;;;;;;;6.28;1.55;;;18.00;54.10;;;;;;5051815;28;20179;-63
2021/12/07 10:17:14;;;;;;;4.72;1.92;;;18.00;54.10;;;;;;5052741;28;20179;-63
2021/12/07 10:19:44;;;;;;;4.53;1.55;;;18.00;54.10;;;;;;5050792;28;20183;-63
2021/12/07 10:22:20;;;;;;;2.83;1.30;;;18.00;53.90;;;;;;5052165;28;20175;-62
2021/12/07 10:24:50;;;;;;;3.78;1.67;;;17.90;54.10;;;;;;5052545;28;20171;-63
2021/12/07 10:27:33;;;;;;;3.92;1.58;;;17.90;54.20;;;;;;5052427;28;20374;-62
2021/12/07 10:30:03;;;;;;;3.90;1.60;;;17.80;54.30;;;;;;5054448;28;20175;-63
2021/12/07 10:32:29;;;;;;;2.35;1.88;;;17.70;54.30;;;;;;5064165;28;20182;-64
2021/12/07 10:34:54;;;;;;;3.53;1.95;;;17.70;54.30;;;;;;5065428;28;20175;-64
2021/12/07 10:37:20;;;;;;;4.45;1.48;;;17.80;54.30;;;;;;5071141;28;20612;-63
2021/12/07 10:39:51;;;;;;;2.10;1.55;;;17.80;54.30;;;;;;5052551;28;20179;-63
2021/12/07 10:42:21;;;;;;;3.28;1.35;;;17.80;54.20;;;;;;5052266;28;20265;-62
2021/12/07 10:44:46;;;;;;;2.88;1.65;;;18.00;54.20;;;;;;5052189;28;20604;-63
2021/12/07 10:47:13;;;;;;;2.50;1.58;;;18.10;53.90;;;;;;5062442;28;20731;-63
2021/12/07 10:49:57;;;;;;;3.40;1.50;;;18.20;53.60;;;;;;5071174;28;20202;-64
2021/12/07 10:52:34;;;;;;;3.83;1.58;;;18.20;53.40;;;;;;5071451;28;20230;-63
2021/12/07 10:55:18;;;;;;;3.13;1.60;;;18.30;53.40;;;;;;5071866;28;20216;-63
2021/12/07 10:57:51;;;;;;;3.28;1.33;;;18.40;53.30;;;;;;5071067;28;20587;-63
2021/12/07 11:00:26;;;;;;;2.75;1.80;;;18.40;53.10;;;;;;5071883;28;20206;-63
2021/12/07 11:03:14;;;;;;;3.88;1.70;;;18.50;53.10;;;;;;5071978;28;20551;-63
2021/12/07 11:05:50;;;;;;;2.70;1.25;;;18.50;53.00;;;;;;5030709;28;20269;-62
2021/12/07 11:08:18;;;;;;;2.63;1.42;;;18.40;53.10;;;;;;5032116;28;20176;-63
2021/12/07 11:10:48;;;;;;;2.20;1.40;;;18.40;53.30;;;;;;5031356;28;20186;-62
2021/12/07 11:13:26;;;;;;;3.67;1.80;;;18.30;53.40;;;;;;5032281;28;20314;-62
2021/12/07 11:15:54;;;;;;;4.30;1.80;;;18.20;54.10;;;;;;5032112;28;20266;-63
2021/12/07 11:18:22;;;;;;;2.33;1.38;;;18.20;53.50;;;;;;5031095;28;20191;-63
2021/12/07 11:20:47;;;;;;;2.20;1.48;;;18.20;53.50;;;;;;5032316;28;20176;-63
2021/12/07 11:23:16;;;;;;;6.47;2.10;;;18.30;53.50;;;;;;5032238;28;20511;-62
2021/12/07 11:31:22;;;;;;;2.40;1.40;;;18.40;53.40;;;;;;5032202;28;20175;-63
2021/12/07 11:33:49;;;;;;;3.97;1.50;;;18.40;53.40;;;;;;5031148;28;20229;-67
2021/12/07 11:36:15;;;;;;;4.47;1.50;;;18.40;53.40;;;;;;5031718;28;20191;-70
2021/12/07 11:38:40;;;;;;;5.95;1.92;;;18.30;53.70;;;;;;5056694;28;20170;-67
2021/12/07 11:41:20;;;;;;;3.88;1.73;;;18.20;54.00;;;;;;5070222;28;20178;-67
2021/12/07 11:43:51;;;;;;;4.25;2.00;;;18.20;54.10;;;;;;5071878;28;20178;-63
2021/12/07 11:46:20;;;;;;;5.82;1.90;;;18.10;54.10;;;;;;5071007;28;20221;-62
2021/12/07 11:48:47;;;;;;;5.00;2.13;;;18.10;54.10;;;;;;5071548;28;20183;-63
2021/12/07 11:51:12;;;;;;;4.47;1.63;;;18.00;54.20;;;;;;5071254;28;20287;-62
2021/12/07 11:53:38;;;;;;;3.70;2.00;;;18.10;54.20;;;;;;5070465;28;20633;-63
2021/12/07 11:56:04;;;;;;;5.65;1.52;;;18.10;54.20;;;;;;5071332;28;20174;-63
2021/12/07 11:58:29;;;;;;;6.28;2.28;;;18.20;54.20;;;;;;5071189;28;20174;-64
2021/12/07 12:00:55;;;;;;;4.45;1.85;;;18.20;54.20;;;;;;5070586;28;20652;-63
2021/12/07 12:03:22;;;;;;;3.20;1.80;;;18.20;54.20;;;;;;5071029;28;20193;-67
2021/12/07 12:05:48;;;;;;;5.95;2.05;;;18.20;54.20;;;;;;5071456;28;20233;-63
2021/12/07 12:08:14;;;;;;;4.53;1.63;;;18.10;54.50;;;;;;5070789;28;20483;-69
2021/12/07 12:10:43;;;;;;;5.78;2.13;;;18.10;54.50;;;;;;5071189;28;20194;-64
2021/12/07 12:13:40;;;;;;;7.13;2.58;;;18.10;54.60;;;;;;5071396;28;20647;-64
2021/12/07 12:16:49;;;;;;;7.95;2.10;;;18.00;54.70;;;;;;5071064;28;20178;-62
2021/12/07 12:19:48;;;;;;;4.53;2.22;;;18.00;54.90;;;;;;5053073;28;20186;-63
2021/12/07 12:22:36;;;;;;;3.55;1.80;;;18.10;54.90;;;;;;5038037;28;20241;-62
2021/12/07 12:25:10;;;;;;;6.20;1.88;;;18.10;54.90;;;;;;5068975;28;20205;-60
2021/12/07 12:27:36;;;;;;;7.57;2.55;;;18.10;54.70;;;;;;5075186;28;20174;-60
2021/12/07 12:30:15;;;;;;;4.70;1.90;;;18.00;54.70;;;;;;5074479;28;20531;-65
2021/12/07 12:32:45;;;;;;;7.32;2.47;;;18.00;54.90;;;;;;5074960;28;20228;-64
2021/12/07 12:35:10;;;;;;;6.88;2.08;;;18.00;54.90;;;;;;5074057;28;20989;-64
2021/12/07 12:37:36;;;;;;;7.15;2.30;;;18.00;55.00;;;;;;5070681;28;20176;-64
2021/12/07 12:40:09;;;;;;;6.80;1.77;;;18.00;55.00;;;;;;5055111;28;20178;-64
2021/12/07 12:43:04;;;;;;;7.65;2.45;;;18.00;55.00;;;;;;5053864;28;20634;-64
2021/12/07 12:45:34;;;;;;;7.70;2.30;;;18.00;55.20;;;;;;5034868;28;20212;-65
2021/12/07 12:48:19;;;;;;;7.38;2.38;;;18.00;55.00;;;;;;5055140;28;20167;-61
2021/12/07 12:50:51;;;;;;;6.90;2.00;;;18.00;55.00;;;;;;5052759;28;20201;-64
2021/12/07 12:53:24;;;;;;;5.53;1.85;;;18.00;54.90;;;;;;5054760;28;20183;-64
2021/12/07 12:55:57;;;;;;;4.68;2.00;;;18.00;55.00;;;;;;5054783;28;20221;-63
2021/12/07 12:58:29;;;;;;;5.50;2.33;;;17.90;55.00;;;;;;5053777;28;20240;-66
2021/12/07 13:01:02;;;;;;;3.95;1.75;;;17.90;55.10;;;;;;5054694;28;20176;-66
2021/12/07 13:03:40;;;;;;;5.95;2.00;;;17.80;55.20;;;;;;5053500;28;20175;-66
2021/12/07 13:06:06;;;;;;;5.50;1.90;;;17.80;55.30;;;;;;5054389;28;20210;-64
2021/12/07 13:08:31;;;;;;;3.95;1.63;;;17.70;55.30;;;;;;5053866;28;20543;-65
2021/12/07 13:11:02;;;;;;;4.78;2.13;;;17.70;55.40;;;;;;5053519;28;20173;-64
2021/12/07 13:13:35;;;;;;;5.60;2.08;;;17.60;55.40;;;;;;5054115;28;20176;-64
2021/12/07 13:16:14;;;;;;;6.05;1.80;;;17.60;55.60;;;;;;5054260;28;20222;-63
2021/12/07 13:18:40;;;;;;;4.78;2.10;;;17.60;55.70;;;;;;5053231;28;20187;-63
2021/12/07 13:21:25;;;;;;;5.80;1.85;;;17.60;55.70;;;;;;5054134;28;20258;-63
2021/12/07 13:24:02;;;;;;;6.18;1.88;;;17.50;55.70;;;;;;5053920;28;20167;-64
2021/12/07 13:26:31;;;;;;;4.32;1.80;;;17.50;55.80;;;;;;5052874;28;20210;-64
2021/12/07 13:29:03;;;;;;;7.88;2.25;;;17.40;55.80;;;;;;5053338;28;20207;-64
2021/12/07 13:31:36;;;;;;;5.45;2.10;;;17.40;55.80;;;;;;5053215;28;20237;-64
2021/12/07 13:34:01;;;;;;;5.05;1.60;;;17.40;55.80;;;;;;5052484;28;20179;-65
2021/12/07 13:36:37;;;;;;;4.93;1.75;;;17.40;55.80;;;;;;5051971;28;20555;-65
2021/12/07 13:39:16;;;;;;;7.35;1.70;;;17.40;55.90;;;;;;5068885;28;20170;-64
2021/12/07 13:42:05;;;;;;;5.63;2.10;;;17.40;55.80;;;;;;5073230;28;20178;-64
2021/12/07 13:44:34;;;;;;;3.53;1.85;;;17.40;55.70;;;;;;5071824;28;20174;-65
2021/12/07 13:47:11;;;;;;;4.53;1.42;;;17.40;55.70;;;;;;5073068;28;20214;-63
2021/12/07 13:49:37;;;;;;;7.72;2.13;;;17.30;55.70;;;;;;5073425;28;20162;-63
2021/12/07 13:52:11;;;;;;;3.15;1.83;;;17.40;55.90;;;;;;5073362;28;20230;-64
2021/12/07 13:54:41;;;;;;;3.38;2.00;;;17.30;55.90;;;;;;5072599;28;20175;-64
2021/12/07 13:57:07;;;;;;;4.10;1.85;;;17.30;55.90;;;;;;5073482;28;20257;-63
2021/12/07 13:59:32;;;;;;;3.20;1.70;;;17.20;55.90;;;;;;5054341;28;20229;-64
2021/12/07 14:01:58;;;;;;;3.13;1.80;;;17.30;55.90;;;;;;5073339;28;20186;-64
2021/12/07 14:04:25;;;;;;;2.75;1.58;;;17.30;55.90;;;;;;5072986;28;20584;-65
2021/12/07 14:06:50;;;;;;;3.40;1.60;;;17.30;56.50;;;;;;5072311;28;20293;-63
2021/12/07 14:09:16;;;;;;;2.13;1.40;;;17.40;55.80;;;;;;5073208;28;20213;-63
2021/12/07 14:11:41;;;;;;;3.50;1.45;;;17.30;55.70;;;;;;5073038;28;20171;-63
2021/12/07 14:14:12;;;;;;;5.32;1.70;;;17.40;55.70;;;;;;5072351;28;20490;-63
2021/12/07 14:16:37;;;;;;;2.72;1.30;;;17.40;55.70;;;;;;5072751;28;20203;-63
2021/12/07 14:19:03;;;;;;;4.35;1.80;;;17.30;55.70;;;;;;5073021;28;20182;-61
2021/12/07 14:21:29;;;;;;;2.88;1.67;;;17.30;55.70;;;;;;5071873;28;20273;-62
2021/12/07 14:24:03;;;;;;;4.15;1.80;;;17.30;55.70;;;;;;5073074;28;20666;-62
2021/12/07 14:26:29;;;;;;;3.90;1.60;;;17.30;55.80;;;;;;5072528;28;20214;-62
2021/12/07 14:29:02;;;;;;;2.88;1.80;;;17.20;55.80;;;;;;5072447;28;20226;-64